Soleil Weather Down

Nearby METAR Reports

 

KCNI - Canton/Cherokee, Georgia, USA
Distance from station: ENE 6mi, 10km
Updated: Tue, 18-Dec-2018 5:55pm EST
Clear
Clear
 Wind from calm
Wind: Calm
Temperature: 54°F , 12°C
Dew Point: 28°F , -2°C
Humidity: 38%
Barometer: 30.08 inHg , 1018.6 hPa
Clouds: Clear
Visibility: 10 miles , 16 km
2018/12/18 22:55 KCNI 182255Z AUTO 00000KT 10SM CLR 12/M02 A3008 RMK AO2
KRYY - Marietta Mccolum, Georgia, USA
Distance from station: SSW 18mi, 29km
Updated: Tue, 18-Dec-2018 5:48pm EST
Clear
Clear
 Wind from NW
Wind: NW 6 mph , 9 km/h
Temperature: 54°F , 12°C
Dew Point: 30°F , -1°C
Humidity: 41%
Barometer: 30.08 inHg , 1018.6 hPa
Clouds: Clear
Visibility: 10 miles , 16 km
2018/12/18 22:48 KRYY 182248Z 32005KT 10SM CLR 12/M01 A3008 RMK AO2 SLP908 T01221011
KVPC - Cartersville, Georgia, USA
Distance from station: WSW 22mi, 35km
Updated: Tue, 18-Dec-2018 5:53pm EST
Clear
Clear
 Wind from calm
Wind: Calm
Temperature: 45°F , 7°C
Dew Point: 36°F , 2°C
Humidity: 71%
Barometer: 30.09 inHg , 1019 hPa
Clouds: Clear
Visibility: 10 miles , 16 km
2018/12/18 22:53 KVPC 182253Z AUTO 00000KT 10SM CLR 07/02 A3009 RMK AO2 SLP186 T00720017
 
KMGE - Dobbins Afb/Mari, Georgia, USA
Distance from station: S 24mi, 39km
Updated: Tue, 18-Dec-2018 5:56pm EST
Mostly cloudy
Mostly cloudy
 Wind from NNW
Wind: NNW 2 mph , 4 km/h
Temperature: 52°F , 11°C
Dew Point: 30°F , -1°C
Humidity: 44%
Barometer: 30.06 inHg , 1017.9 hPa
Clouds: Mostly cloudy
Visibility: 10 miles , 16 km
Cloud details: Mostly cloudy 25000 ft
2018/12/18 22:56 KMGE 182256Z 33002KT 10SM BKN250 11/M01 A3006 RMK AO2A SLP182 T01061008 $
KPDK - Peachtree/Dekalb, Georgia, USA
Distance from station: SSE 29mi, 47km
Updated: Tue, 18-Dec-2018 5:53pm EST
Clear
Clear
 Wind from calm
Wind: Calm
Temperature: 52°F , 11°C
Dew Point: 32°F , 0°C
Humidity: 47%
Barometer: 30.06 inHg , 1017.9 hPa
Clouds: Clear
Visibility: 10 miles , 16 km
2018/12/18 22:53 KPDK 182253Z 00000KT 10SM CLR 11/00 A3006 RMK AO2 SLP186 T01110000
KFTY - Atlanta/Fulton, Georgia, USA
Distance from station: S 34mi, 54km
Updated: Tue, 18-Dec-2018 5:53pm EST
Clear
Clear
 Wind from calm
Wind: Calm
Temperature: 54°F , 12°C
Dew Point: 34°F , 1°C
Humidity: 47%
Barometer: 30.07 inHg , 1018.3 hPa
Clouds: Clear
Visibility: 10 miles , 16 km
2018/12/18 22:53 KFTY 182253Z 00000KT 10SM CLR 12/01 A3007 RMK AO2 SLP182 T01220006
 
KPUJ - Atlanta/Paulding, Georgia, USA
Distance from station: SW 34mi, 55km
Updated: Tue, 18-Dec-2018 5:55pm EST
Clear
Clear
 Wind from WNW
Wind: WNW 3 mph , 6 km/h
Temperature: 50°F , 10°C
Dew Point: 30°F , -1°C
Humidity: 47%
Barometer: 30.08 inHg , 1018.6 hPa
Clouds: Clear
Visibility: 10 miles , 16 km
2018/12/18 22:55 KPUJ 182255Z AUTO 30003KT 10SM CLR 10/M01 A3008 RMK AO2
KDNN - Dalton, Georgia, USA
Distance from station: NW 37mi, 59km
Updated: Tue, 18-Dec-2018 5:55pm EST
Clear
Clear
 Wind from calm
Wind: Calm
Temperature: 48°F , 9°C
Dew Point: 34°F , 1°C
Humidity: 58%
Barometer: 30.09 inHg , 1019 hPa
Clouds: Clear
Visibility: 10 miles , 16 km
2018/12/18 22:55 KDNN 182255Z AUTO 00000KT 10SM CLR 09/01 A3009 RMK AO2
KLZU - Lawrenceville, Georgia, USA
Distance from station: ESE 37mi, 59km
Updated: Tue, 18-Dec-2018 5:56pm EST
Clear
Clear
 Wind from calm
Wind: Calm
Temperature: 52°F , 11°C
Dew Point: 36°F , 2°C
Humidity: 54%
Barometer: 30.07 inHg , 1018.3 hPa
Clouds: Clear
Visibility: 10 miles , 16 km
2018/12/18 22:56 KLZU 182256Z 00000KT 10SM CLR 11/02 A3007 RMK AO2 SLP196 T01110022
 
KRMG - Rome, Georgia, USA
Distance from station: W 38mi, 61km
Updated: Tue, 18-Dec-2018 5:53pm EST
Clear
Clear
 Wind from calm
Wind: Calm
Temperature: 52°F , 11°C
Dew Point: 28°F , -2°C
Humidity: 41%
Barometer: 30.08 inHg , 1018.6 hPa
Clouds: Clear
Visibility: 10 miles , 16 km
2018/12/18 22:53 KRMG 182253Z AUTO 00000KT 10SM CLR 11/M02 A3008 RMK AO2 SLP185 T01061017
KGVL - Gainesville, Georgia, USA
Distance from station: E 39mi, 62km
Updated: Tue, 18-Dec-2018 5:53pm EST
Clear
Clear
 Wind from E
Wind: E 3 mph , 6 km/h
Temperature: 54°F , 12°C
Dew Point: 32°F , 0°C
Humidity: 44%
Barometer: 30.09 inHg , 1019 hPa
Clouds: Clear
Visibility: 10 miles , 16 km
2018/12/18 22:53 KGVL 182253Z AUTO 10003KT 10SM CLR 12/00 A3009 RMK AO2 SLP188 T01170000
KATL - Atlanta, Georgia, USA
Distance from station: S 44mi, 71km
Updated: Tue, 18-Dec-2018 5:52pm EST
Mostly cloudy
Mostly cloudy
 Wind from W
Wind: W 3 mph , 6 km/h
Temperature: 57°F , 14°C
Dew Point: 28°F , -2°C
Humidity: 33%
Barometer: 30.06 inHg , 1017.9 hPa
Clouds: Mostly cloudy
Visibility: 10 miles , 16 km
Cloud details: Few Clouds 20000 ft
Mostly cloudy 25000 ft
2018/12/18 22:52 KATL 182252Z 27003KT 10SM FEW200 BKN250 14/M02 A3006 RMK AO2 SLP180 T01441017